createdAt,value
2022-07-29T00:03:54.059Z,3.20
2022-07-29T00:08:52.079Z,2.73
2022-07-29T00:13:51.163Z,3.20
2022-07-29T00:18:50.628Z,2.93
2022-07-29T00:23:48.592Z,3.03
2022-07-29T00:28:46.556Z,3.57
2022-07-29T00:33:44.510Z,3.50
2022-07-29T00:38:46.154Z,3.30
2022-07-29T00:43:44.475Z,3.40
2022-07-29T00:48:42.537Z,3.57
2022-07-29T00:53:40.556Z,3.60
2022-07-29T00:58:40.717Z,3.10
2022-07-29T01:03:38.620Z,2.87
2022-07-29T01:08:37.368Z,3.33
2022-07-29T01:13:36.133Z,3.33
2022-07-29T01:18:39.836Z,3.37
2022-07-29T01:23:59.105Z,3.60
2022-07-29T01:29:18.939Z,2.77
2022-07-29T01:34:24.004Z,3.30
2022-07-29T01:39:27.984Z,3.23
2022-07-29T01:44:34.217Z,3.30
2022-07-29T01:49:37.564Z,3.47
2022-07-29T01:54:40.785Z,3.67
2022-07-29T01:59:42.267Z,3.57
2022-07-29T02:04:43.152Z,3.37
2022-07-29T02:09:43.343Z,3.50
2022-07-29T02:14:45.764Z,3.77
2022-07-29T02:19:46.298Z,3.57
2022-07-29T02:24:44.768Z,3.80
2022-07-29T02:29:45.112Z,3.00
2022-07-29T02:34:44.861Z,2.80
2022-07-29T02:39:45.860Z,3.50
2022-07-29T02:44:45.660Z,3.27
2022-07-29T02:49:53.461Z,3.00
2022-07-29T02:54:56.952Z,3.10
2022-07-29T03:00:01.536Z,3.53
2022-07-29T03:05:01.071Z,3.37
2022-07-29T03:09:59.962Z,3.13
2022-07-29T03:15:00.828Z,2.80
2022-07-29T03:19:59.240Z,3.37
2022-07-29T03:24:57.714Z,3.50
2022-07-29T03:29:55.789Z,3.60
2022-07-29T03:34:55.909Z,3.20
2022-07-29T03:39:57.105Z,3.10
2022-07-29T03:44:57.889Z,3.10
2022-07-29T03:50:02.245Z,2.87
2022-07-29T03:55:00.430Z,2.80
2022-07-29T03:59:59.143Z,3.17
2022-07-29T04:04:58.624Z,3.60
2022-07-29T04:09:56.582Z,3.17
2022-07-29T04:14:54.538Z,3.50
2022-07-29T04:19:52.545Z,3.00
2022-07-29T04:24:51.856Z,2.97
2022-07-29T04:29:56.999Z,3.30
2022-07-29T04:34:55.443Z,3.87
2022-07-29T04:39:54.763Z,3.37
2022-07-29T04:44:52.779Z,3.53
2022-07-29T04:49:50.785Z,4.00
2022-07-29T04:54:48.789Z,3.27
2022-07-29T04:59:48.223Z,3.67
2022-07-29T05:04:46.308Z,2.87
2022-07-29T05:09:44.320Z,3.87
2022-07-29T05:14:42.406Z,3.27
2022-07-29T05:19:41.811Z,3.50
2022-07-29T05:24:39.875Z,2.67
2022-07-29T05:29:43.889Z,3.27
2022-07-29T05:34:51.330Z,3.90
2022-07-29T05:39:56.427Z,3.40
2022-07-29T05:44:55.727Z,2.90
2022-07-29T05:49:55.314Z,3.60
2022-07-29T05:54:53.347Z,3.90
2022-07-29T05:59:52.491Z,3.00
2022-07-29T06:04:50.694Z,3.70
2022-07-29T06:09:50.112Z,4.00
2022-07-29T06:14:50.923Z,3.23
2022-07-29T06:19:52.015Z,2.97
2022-07-29T06:24:51.480Z,3.17
2022-07-29T06:29:49.555Z,3.70
2022-07-29T06:34:48.844Z,3.97
2022-07-29T06:39:47.027Z,2.70
2022-07-29T06:44:46.350Z,2.80
2022-07-29T06:49:44.391Z,2.80
2022-07-29T06:54:48.853Z,3.07
2022-07-29T06:59:48.191Z,3.20
2022-07-29T07:04:46.198Z,4.40
2022-07-29T07:09:47.339Z,3.57
2022-07-29T07:14:45.568Z,3.03
2022-07-29T07:19:46.046Z,2.97
2022-07-29T07:24:44.047Z,2.63
2022-07-29T07:29:43.709Z,3.80
2022-07-29T07:34:43.803Z,2.43
2022-07-29T07:39:42.058Z,2.43
2022-07-29T07:45:03.861Z,3.17
2022-07-29T07:49:59.507Z,3.00
2022-07-29T07:54:57.469Z,3.10
2022-07-29T07:59:55.516Z,3.00
2022-07-29T08:04:53.479Z,2.07
2022-07-29T08:09:52.887Z,2.57
2022-07-29T08:14:50.887Z,2.70
2022-07-29T08:19:49.315Z,2.23
2022-07-29T08:24:53.334Z,2.33
2022-07-29T08:29:54.273Z,2.33
2022-07-29T08:34:52.266Z,2.10
2022-07-29T08:39:50.289Z,2.20
2022-07-29T08:44:48.389Z,2.00
2022-07-29T08:49:49.437Z,2.10
2022-07-29T08:54:48.122Z,2.40
2022-07-29T08:59:49.190Z,1.80
2022-07-29T09:04:48.986Z,3.03
2022-07-29T09:09:47.170Z,2.33
2022-07-29T09:14:45.471Z,1.83
2022-07-29T09:19:45.319Z,2.00
2022-07-29T09:24:46.347Z,2.60
2022-07-29T09:29:45.422Z,2.13
2022-07-29T09:34:43.361Z,1.97
2022-07-29T09:39:46.736Z,2.13
2022-07-29T09:44:50.141Z,2.17
2022-07-29T09:49:58.781Z,1.77
2022-07-29T09:55:07.206Z,2.27
2022-07-29T10:00:08.066Z,2.57
2022-07-29T10:05:20.941Z,2.17
2022-07-29T10:10:25.574Z,2.40
2022-07-29T10:15:25.603Z,1.90
2022-07-29T10:20:24.607Z,1.67
2022-07-29T10:25:25.103Z,1.77
2022-07-29T10:30:24.891Z,2.57
2022-07-29T10:35:56.715Z,2.10
2022-07-29T10:41:25.145Z,2.33
2022-07-29T10:46:24.710Z,1.87
2022-07-29T10:51:23.904Z,4.17
2022-07-29T10:56:29.225Z,2.00
2022-07-29T11:01:37.021Z,1.40
2022-07-29T11:07:09.993Z,1.70
2022-07-29T11:12:47.737Z,2.03
2022-07-29T11:18:08.301Z,2.07
2022-07-29T11:23:21.759Z,1.67
2022-07-29T11:28:25.344Z,1.70
2022-07-29T11:33:54.864Z,1.93
2022-07-29T11:38:49.237Z,1.83
2022-07-29T11:43:53.151Z,2.23
2022-07-29T11:48:52.148Z,1.80
2022-07-29T11:53:52.650Z,1.90
2022-07-29T11:58:52.421Z,2.20
2022-07-29T12:04:03.973Z,2.93
2022-07-29T12:09:11.271Z,2.00
2022-07-29T12:14:27.380Z,2.10
2022-07-29T12:19:25.720Z,2.40
2022-07-29T12:24:26.678Z,3.00
2022-07-29T12:29:33.820Z,3.20
2022-07-29T12:34:34.063Z,3.07
2022-07-29T12:39:32.420Z,3.80
2022-07-29T12:50:10.242Z,2.80
2022-07-29T12:55:08.973Z,3.00
2022-07-29T13:00:11.131Z,2.67
2022-07-29T13:05:12.127Z,3.10
2022-07-29T13:10:15.791Z,2.70
2022-07-29T13:15:17.881Z,2.80
2022-07-29T13:20:17.298Z,2.63
2022-07-29T13:25:15.357Z,2.70
2022-07-29T13:30:14.397Z,2.70
2022-07-29T13:35:12.694Z,2.60
2022-07-29T13:40:13.185Z,2.63
2022-07-29T13:45:12.794Z,3.00
2022-07-29T13:50:12.056Z,2.80
2022-07-29T13:55:11.937Z,2.90
2022-07-29T14:00:11.202Z,2.60
2022-07-29T14:05:10.810Z,3.20
2022-07-29T14:10:11.302Z,3.13
2022-07-29T14:15:10.382Z,3.10
2022-07-29T14:20:09.035Z,2.63
2022-07-29T14:25:14.399Z,3.00
2022-07-29T14:30:15.385Z,2.30
2022-07-29T14:35:13.408Z,2.73
2022-07-29T14:40:12.371Z,3.37
2022-07-29T14:45:11.703Z,2.63
2022-07-29T14:50:12.274Z,2.43
2022-07-29T14:55:16.513Z,3.20
2022-07-29T15:00:19.133Z,2.77
2022-07-29T15:05:18.627Z,2.67
2022-07-29T15:10:16.784Z,2.93
2022-07-29T15:15:15.009Z,2.10
2022-07-29T15:20:13.342Z,2.53
2022-07-29T15:25:13.306Z,3.23
2022-07-29T15:30:27.910Z,2.60
2022-07-29T15:35:31.300Z,2.17
2022-07-29T15:40:31.036Z,2.90
2022-07-29T15:45:32.493Z,2.00
2022-07-29T15:50:32.620Z,2.60
2022-07-29T15:55:32.004Z,2.57
2022-07-29T16:00:30.061Z,2.77
2022-07-29T16:05:29.580Z,2.53
2022-07-29T16:10:27.817Z,2.50
2022-07-29T16:15:27.341Z,2.60
2022-07-29T16:20:25.450Z,2.73
2022-07-29T16:25:43.860Z,3.40
2022-07-29T16:30:44.466Z,2.53
2022-07-29T16:35:42.475Z,2.60
2022-07-29T16:40:40.535Z,2.67
2022-07-29T16:45:45.812Z,2.63
2022-07-29T16:50:45.985Z,2.10
2022-07-29T16:55:44.230Z,2.27
2022-07-29T17:00:42.537Z,2.80
2022-07-29T17:05:52.584Z,2.80
2022-07-29T17:10:53.580Z,2.63
2022-07-29T17:15:51.691Z,2.77
2022-07-29T17:20:49.751Z,2.40
2022-07-29T17:25:47.820Z,2.63
2022-07-29T17:30:47.334Z,2.20
2022-07-29T17:36:03.262Z,2.83
2022-07-29T17:41:01.392Z,2.80
2022-07-29T17:46:08.119Z,2.70
2022-07-29T17:51:06.521Z,2.27
2022-07-29T17:56:05.984Z,2.97
2022-07-29T18:01:04.396Z,3.73
2022-07-29T18:06:04.283Z,2.63
2022-07-29T18:11:02.422Z,3.10
2022-07-29T18:16:00.958Z,2.50
2022-07-29T18:20:59.128Z,2.20
2022-07-29T18:25:58.591Z,2.43
2022-07-29T18:30:56.700Z,2.60
2022-07-29T18:36:07.696Z,2.90
2022-07-29T18:41:11.403Z,2.50
2022-07-29T18:46:09.422Z,2.50
2022-07-29T18:51:09.493Z,2.37
2022-07-29T18:56:07.716Z,2.20
2022-07-29T19:01:07.175Z,2.20
2022-07-29T19:06:05.582Z,2.47
2022-07-29T19:11:07.328Z,2.90
2022-07-29T19:16:07.482Z,2.30
2022-07-29T19:21:05.535Z,2.97
2022-07-29T19:26:03.617Z,2.10
2022-07-29T19:31:08.149Z,2.00
2022-07-29T19:36:06.673Z,2.40
2022-07-29T19:41:06.119Z,2.20
2022-07-29T19:46:04.222Z,2.43
2022-07-29T19:51:03.588Z,2.47
2022-07-29T19:56:01.595Z,2.83
2022-07-29T20:00:59.717Z,2.97
2022-07-29T20:05:58.260Z,2.50
2022-07-29T20:10:57.610Z,2.47
2022-07-29T20:15:55.634Z,2.20
2022-07-29T20:20:53.925Z,2.40
2022-07-29T20:25:51.952Z,3.20
2022-07-29T20:30:53.449Z,2.93
2022-07-29T20:35:51.695Z,2.70
2022-07-29T20:40:50.665Z,2.50
2022-07-29T20:45:48.779Z,2.40
2022-07-29T20:50:48.807Z,2.50
2022-07-29T20:55:46.739Z,2.63
2022-07-29T21:00:44.794Z,2.37
2022-07-29T21:05:43.934Z,2.30
2022-07-29T21:10:43.433Z,2.47
2022-07-29T21:15:44.036Z,2.60
2022-07-29T21:20:42.074Z,2.53
2022-07-29T21:25:40.025Z,2.23
2022-07-29T21:30:39.354Z,1.83
2022-07-29T21:36:07.314Z,2.67
2022-07-29T21:40:55.642Z,2.03
2022-07-29T21:45:55.318Z,2.10
2022-07-29T21:50:54.237Z,2.80
2022-07-29T21:55:54.215Z,2.80
2022-07-29T22:00:54.978Z,2.33
2022-07-29T22:05:53.172Z,2.60
2022-07-29T22:10:51.306Z,2.23
2022-07-29T22:15:49.332Z,2.23
2022-07-29T22:20:48.798Z,2.40
2022-07-29T22:25:46.821Z,2.63
2022-07-29T22:30:44.851Z,1.97
2022-07-29T22:35:42.875Z,2.50
2022-07-29T22:40:42.287Z,2.30
2022-07-29T22:45:42.614Z,2.37
2022-07-29T22:50:40.889Z,2.60
2022-07-29T22:55:38.906Z,2.43
2022-07-29T23:00:38.676Z,2.40
2022-07-29T23:05:37.070Z,2.50
2022-07-29T23:10:35.242Z,2.50
2022-07-29T23:15:33.227Z,1.97
2022-07-29T23:20:32.639Z,2.33
2022-07-29T23:25:30.779Z,2.63
2022-07-29T23:30:29.150Z,2.00
2022-07-29T23:35:27.407Z,2.40
2022-07-29T23:40:26.916Z,2.30
2022-07-29T23:45:32.549Z,2.50
2022-07-29T23:50:43.265Z,2.13
2022-07-29T23:55:42.640Z,2.27
